Time;durP1;ratioP1;P1;durP2;ratioP2;P2;SDS_P1;SDS_P2;PMS_P1;PMS_P2;Temp;Humidity;BMP_temperature;BMP_pressure;BME280_temperature;BME280_humidity;BME280_pressure;Samples;Min_cycle;Max_cycle;Signal;HPM_P1;HPM_P2
2023/10/13 00:00:42;;;;;;;16.60;3.10;;;;;;;13.98;61.46;100706.63;5092881;28;20062;-73
2023/10/13 00:03:18;;;;;;;16.33;3.20;;;;;;;13.95;61.58;100698.94;5093503;28;20493;-73
2023/10/13 00:05:44;;;;;;;19.45;3.38;;;;;;;14.04;62.05;100697.63;5090818;28;20105;-73
2023/10/13 00:08:10;;;;;;;18.33;3.10;;;;;;;14.03;61.88;100704.06;5099564;28;20036;-73
2023/10/13 00:10:36;;;;;;;17.67;2.97;;;;;;;14.01;61.27;100692.66;5083117;28;20383;-73
2023/10/13 00:13:19;;;;;;;15.18;3.10;;;;;;;14.13;60.72;100700.84;5084771;28;20117;-73
2023/10/13 00:18:26;;;;;;;23.05;3.92;;;;;;;14.16;61.15;100703.09;5077933;28;20024;-73
2023/10/13 00:20:52;;;;;;;18.58;3.13;;;;;;;14.24;60.76;100705.50;5055370;28;20475;-72
2023/10/13 00:23:20;;;;;;;16.15;3.35;;;;;;;14.24;61.21;100707.41;5084951;28;20032;-73
2023/10/13 00:25:56;;;;;;;18.52;3.13;;;;;;;14.07;61.00;100699.88;5082684;28;20143;-73
2023/10/13 00:28:24;;;;;;;19.95;3.30;;;;;;;14.20;60.55;100692.63;5088914;28;20029;-73
2023/10/13 00:31:00;;;;;;;13.48;3.05;;;;;;;14.17;60.45;100685.81;5088135;28;20039;-73
2023/10/13 00:33:26;;;;;;;16.85;2.80;;;;;;;14.22;60.23;100696.78;5087809;28;20036;-73
2023/10/13 00:35:52;;;;;;;21.98;3.47;;;;;;;14.12;60.13;100674.84;5067903;28;20032;-73
2023/10/13 00:38:19;;;;;;;16.85;2.88;;;;;;;14.23;60.37;100690.31;5087326;28;20117;-73
2023/10/13 00:40:52;;;;;;;20.73;3.00;;;;;;;14.22;60.30;100683.25;5070321;28;20545;-73
2023/10/13 00:45:57;;;;;;;18.98;3.35;;;;;;;14.26;60.87;100684.44;5091295;28;20024;-73
2023/10/13 00:48:29;;;;;;;20.65;2.97;;;;;;;14.23;60.94;100676.78;5080864;28;20016;-73
2023/10/13 00:51:02;;;;;;;20.15;3.55;;;;;;;14.19;61.41;100675.56;5086123;28;20016;-72
2023/10/13 00:53:29;;;;;;;13.30;2.83;;;;;;;14.09;61.75;100667.16;5077868;28;20044;-73
2023/10/13 00:55:57;;;;;;;19.77;3.22;;;;;;;14.08;62.27;100669.06;5083903;28;20031;-73
2023/10/13 00:58:25;;;;;;;18.27;2.75;;;;;;;13.89;63.05;100651.16;5061481;28;20115;-73
2023/10/13 01:00:56;;;;;;;19.55;3.78;;;;;;;13.99;63.10;100670.38;5083446;28;20070;-73
2023/10/13 01:03:26;;;;;;;22.42;3.38;;;;;;;13.83;63.44;100649.34;5069834;28;20055;-73
2023/10/13 01:05:55;;;;;;;20.02;3.50;;;;;;;14.01;63.54;100675.59;5085187;28;20559;-73
2023/10/13 01:08:38;;;;;;;15.73;2.92;;;;;;;14.01;63.03;100681.81;5083566;28;20046;-73
2023/10/13 01:11:07;;;;;;;16.05;2.75;;;;;;;13.97;63.27;100682.47;5075282;28;20029;-73
2023/10/13 01:13:36;;;;;;;21.67;3.22;;;;;;;13.91;63.59;100689.63;5074167;28;20033;-74
2023/10/13 01:16:02;;;;;;;18.70;3.33;;;;;;;13.78;63.78;100684.38;5070204;28;20032;-72
2023/10/13 01:18:28;;;;;;;20.85;3.22;;;;;;;13.66;64.94;100664.50;5072240;28;20074;-73
2023/10/13 01:20:58;;;;;;;19.13;3.63;;;;;;;13.69;65.10;100675.69;5073099;28;20024;-73
2023/10/13 01:23:28;;;;;;;26.67;4.10;;;;;;;13.61;65.43;100681.41;5074789;28;20062;-73
2023/10/13 01:25:54;;;;;;;19.52;3.15;;;;;;;13.50;65.72;100666.72;5085603;28;20058;-73
2023/10/13 01:28:21;;;;;;;20.95;3.30;;;;;;;13.59;65.10;100689.72;5087637;28;20533;-73
2023/10/13 01:30:50;;;;;;;16.17;3.35;;;;;;;13.50;64.95;100687.50;5077262;28;20046;-73
2023/10/13 01:33:28;;;;;;;19.20;3.13;;;;;;;13.56;64.51;100690.16;5079238;28;20391;-73
2023/10/13 01:35:58;;;;;;;17.85;3.38;;;;;;;13.52;64.46;100685.44;5064179;28;20043;-73
2023/10/13 01:38:28;;;;;;;17.65;2.75;;;;;;;13.48;63.37;100668.00;5082405;28;20107;-73
2023/10/13 01:40:56;;;;;;;21.88;3.38;;;;;;;13.11;63.45;100614.66;5059600;28;20391;-73
2023/10/13 01:43:22;;;;;;;14.43;3.00;;;;;;;13.41;63.18;100684.28;5068134;28;20495;-73
2023/10/13 01:45:49;;;;;;;15.20;3.13;;;;;;;13.25;63.42;100663.22;5086202;28;20040;-73
2023/10/13 01:48:21;;;;;;;21.73;3.28;;;;;;;13.36;63.02;100689.50;5068542;28;20024;-73
2023/10/13 01:50:59;;;;;;;19.48;3.20;;;;;;;13.28;62.76;100678.97;5061793;28;20081;-73
2023/10/13 01:53:25;;;;;;;15.00;2.90;;;;;;;13.22;62.93;100677.13;5073171;28;20044;-73
2023/10/13 01:55:50;;;;;;;17.73;3.25;;;;;;;12.88;63.05;100636.00;5074223;28;20097;-73
2023/10/13 01:58:16;;;;;;;17.90;3.60;;;;;;;13.07;62.83;100678.25;5072034;28;20032;-73
2023/10/13 02:00:47;;;;;;;14.25;2.92;;;;;;;12.92;63.17;100654.25;5080729;28;20028;-73
2023/10/13 02:03:16;;;;;;;22.33;3.35;;;;;;;13.04;63.26;100684.09;5079580;28;20088;-73
2023/10/13 02:05:46;;;;;;;13.68;3.05;;;;;;;13.06;63.23;100670.38;5088634;28;20180;-73
2023/10/13 02:08:24;;;;;;;15.38;3.50;;;;;;;12.89;63.50;100629.56;5070791;28;20032;-73
2023/10/13 02:10:55;;;;;;;17.15;3.50;;;;;;;13.04;63.52;100657.06;5061064;28;20036;-73
2023/10/13 02:13:22;;;;;;;17.90;3.20;;;;;;;13.03;63.79;100650.03;5094399;28;20035;-73
2023/10/13 02:15:51;;;;;;;20.77;3.55;;;;;;;13.01;63.91;100660.22;5092913;28;20016;-73
2023/10/13 02:18:27;;;;;;;22.42;2.88;;;;;;;12.97;63.96;100650.91;5085965;28;20036;-73
2023/10/13 02:20:56;;;;;;;19.05;3.60;;;;;;;12.87;63.95;100631.66;5083857;28;20028;-73
2023/10/13 02:23:29;;;;;;;18.98;2.95;;;;;;;12.97;63.85;100639.28;5070173;28;20549;-73
2023/10/13 02:26:00;;;;;;;20.92;3.20;;;;;;;12.97;63.93;100634.69;5081137;28;20700;-73
2023/10/13 02:28:33;;;;;;;21.48;3.65;;;;;;;13.11;63.95;100636.25;5091109;28;20434;-73
2023/10/13 02:31:03;;;;;;;16.73;3.20;;;;;;;13.10;63.90;100633.75;5091556;28;20054;-73
2023/10/13 02:33:32;;;;;;;20.55;3.65;;;;;;;13.11;64.05;100619.19;5083305;28;20043;-73
2023/10/13 02:35:59;;;;;;;17.45;2.78;;;;;;;13.02;64.15;100605.16;5081093;28;20024;-73
2023/10/13 02:38:33;;;;;;;14.68;2.90;;;;;;;13.10;64.05;100609.44;5089022;28;20028;-73
2023/10/13 02:41:05;;;;;;;16.50;2.70;;;;;;;12.94;63.94;100581.94;5086454;28;20152;-73
2023/10/13 02:43:35;;;;;;;19.80;2.95;;;;;;;13.06;63.95;100606.38;5075428;28;20281;-73
2023/10/13 02:46:01;;;;;;;17.20;2.60;;;;;;;13.06;63.79;100609.06;5092555;28;20126;-73
2023/10/13 02:48:38;;;;;;;14.93;2.47;;;;;;;13.04;63.72;100608.44;5093831;28;20020;-73
2023/10/13 02:51:07;;;;;;;15.80;2.80;;;;;;;13.04;63.73;100600.34;5084638;28;20028;-73
2023/10/13 02:53:33;;;;;;;17.40;3.25;;;;;;;12.93;63.31;100574.88;5075954;28;20124;-73
2023/10/13 02:56:04;;;;;;;15.05;2.50;;;;;;;13.06;62.98;100617.16;5092693;28;20474;-73
2023/10/13 02:58:38;;;;;;;11.88;2.38;;;;;;;13.11;62.63;100621.91;5092181;28;20031;-73
2023/10/13 03:01:17;;;;;;;10.82;2.30;;;;;;;13.01;62.56;100591.84;5092558;28;20035;-73
2023/10/13 03:03:50;;;;;;;12.20;2.40;;;;;;;13.11;61.59;100590.34;5088283;28;20043;-73
2023/10/13 03:06:17;;;;;;;12.25;2.45;;;;;;;13.20;61.48;100601.69;5082509;28;20027;-73
2023/10/13 03:08:43;;;;;;;12.63;2.65;;;;;;;13.27;61.50;100607.06;5089196;28;20042;-73
2023/10/13 03:11:10;;;;;;;14.35;2.22;;;;;;;13.34;61.24;100599.72;5089572;28;20028;-73
2023/10/13 03:13:36;;;;;;;11.70;2.17;;;;;;;13.34;61.19;100586.19;5082663;28;20032;-73
2023/10/13 03:16:11;;;;;;;18.30;2.50;;;;;;;13.33;60.97;100587.25;5068942;28;20039;-74
2023/10/13 03:18:36;;;;;;;15.40;2.15;;;;;;;13.37;61.05;100591.16;5082662;28;20024;-73
2023/10/13 03:21:02;;;;;;;10.98;2.17;;;;;;;13.39;61.41;100586.38;5081659;28;20033;-73
2023/10/13 03:23:28;;;;;;;12.45;2.38;;;;;;;13.21;61.86;100551.16;5053652;28;20074;-73
2023/10/13 03:25:55;;;;;;;14.68;2.50;;;;;;;13.43;62.26;100578.63;5075534;28;20111;-73
2023/10/13 03:28:25;;;;;;;15.65;3.00;;;;;;;13.38;62.65;100563.09;5058233;28;20038;-73
2023/10/13 03:30:53;;;;;;;14.90;3.10;;;;;;;13.43;63.51;100568.66;5087298;28;20024;-73
2023/10/13 03:33:27;;;;;;;15.82;2.60;;;;;;;13.41;64.04;100565.34;5084937;28;20060;-73
2023/10/13 03:35:54;;;;;;;15.68;3.05;;;;;;;13.40;64.59;100563.69;5073447;28;20043;-73
2023/10/13 03:38:20;;;;;;;16.00;2.72;;;;;;;13.38;65.07;100561.22;5070156;28;20044;-73
2023/10/13 03:41:07;;;;;;;17.73;2.55;;;;;;;13.24;65.45;100521.84;5087347;28;20052;-73
2023/10/13 03:43:34;;;;;;;17.73;2.70;;;;;;;13.34;65.08;100537.56;5084259;28;20024;-74
2023/10/13 03:46:08;;;;;;;18.73;3.42;;;;;;;13.43;65.33;100536.22;5064118;28;21628;-73
2023/10/13 03:48:40;;;;;;;16.35;3.20;;;;;;;13.46;65.50;100537.66;5076764;28;20155;-73
2023/10/13 03:51:15;;;;;;;16.98;2.83;;;;;;;13.43;65.24;100535.41;5084140;28;20157;-73
2023/10/13 03:53:52;;;;;;;18.83;3.13;;;;;;;13.36;66.09;100535.47;5059779;28;20106;-73
2023/10/13 03:56:38;;;;;;;16.63;2.90;;;;;;;13.40;65.67;100536.66;5075220;28;20073;-73
2023/10/13 03:59:06;;;;;;;15.40;2.60;;;;;;;13.42;65.58;100531.03;5079130;28;20075;-73
2023/10/13 04:01:43;;;;;;;15.27;2.72;;;;;;;13.47;65.20;100523.91;5072817;28;21141;-74
2023/10/13 04:04:14;;;;;;;16.15;3.15;;;;;;;13.51;64.96;100521.56;5086960;28;20036;-74
2023/10/13 04:15:21;;;;;;;15.30;3.00;;;;;;;13.58;65.15;100506.94;5088724;28;20032;-74
2023/10/13 04:17:29;;;;;;;15.82;2.95;;;;;;;13.59;65.30;100503.19;5080921;28;20435;-74
2023/10/13 04:30:52;;;;;;;24.73;3.80;;;;;;;13.68;68.51;100494.78;5089443;28;20032;-73
2023/10/13 04:33:48;;;;;;;19.02;3.65;;;;;;;13.72;68.72;100495.97;5088162;28;20028;-75
2023/10/13 04:36:14;;;;;;;20.83;3.75;;;;;;;13.80;68.27;100493.75;5083670;28;20036;-73
2023/10/13 04:38:59;;;;;;;20.38;3.95;;;;;;;13.82;68.55;100482.72;5081739;28;20032;-72
2023/10/13 04:41:31;;;;;;;15.35;3.22;;;;;;;13.83;67.79;100465.44;5084275;28;20031;-72
2023/10/13 05:51:43;;;;;;;15.90;2.55;;;;;;;14.09;65.17;100332.50;5086492;28;20534;-73
2023/10/13 06:30:00;;;;;;;10.18;2.20;;;;;;;14.57;60.00;100317.13;5092524;28;20035;-73
2023/10/13 06:32:26;;;;;;;12.98;2.40;;;;;;;14.62;59.56;100319.09;5092879;28;20467;-73
2023/10/13 06:34:57;;;;;;;15.15;1.92;;;;;;;14.49;59.45;100298.47;5085556;28;20031;-73
2023/10/13 06:37:26;;;;;;;11.68;2.50;;;;;;;14.65;58.65;100305.09;5088362;28;20084;-73
2023/10/13 06:39:56;;;;;;;9.20;2.30;;;;;;;14.64;57.80;100309.69;5091970;28;20049;-73
2023/10/13 06:42:29;;;;;;;11.00;2.22;;;;;;;14.66;57.43;100301.31;5087637;28;20020;-74
2023/10/13 06:44:55;;;;;;;10.25;1.92;;;;;;;14.79;57.62;100303.75;5091142;28;20470;-74
2023/10/13 06:47:24;;;;;;;14.73;2.60;;;;;;;14.81;57.57;100298.94;5062690;28;20086;-73
2023/10/13 06:49:54;;;;;;;13.93;2.25;;;;;;;14.83;57.26;100301.41;5091564;28;20082;-74
2023/10/13 06:52:22;;;;;;;11.32;1.90;;;;;;;14.76;57.44;100302.34;5094943;28;20130;-73
2023/10/13 06:54:50;;;;;;;13.75;2.08;;;;;;;14.64;57.83;100282.59;5090628;28;20023;-73
2023/10/13 06:57:20;;;;;;;13.05;2.13;;;;;;;14.83;57.73;100294.09;5090793;28;20051;-73
2023/10/13 06:59:48;;;;;;;16.20;2.65;;;;;;;14.76;57.41;100291.50;5083649;28;20029;-73
2023/10/13 07:02:23;;;;;;;13.80;2.47;;;;;;;14.79;57.44;100298.34;5082320;28;20036;-73
2023/10/13 07:04:56;;;;;;;8.63;2.00;;;;;;;14.83;56.94;100293.25;5092755;28;20134;-73
2023/10/13 07:07:23;;;;;;;10.73;2.03;;;;;;;14.89;57.05;100293.13;5086279;28;20089;-74
2023/10/13 07:09:55;;;;;;;10.80;2.67;;;;;;;14.86;56.96;100290.09;5082329;28;20024;-74
2023/10/13 07:12:33;;;;;;;10.60;2.38;;;;;;;14.90;56.90;100278.53;5089058;28;20036;-73
2023/10/13 07:17:45;;;;;;;9.93;2.10;;;;;;;14.89;56.92;100285.00;5076158;28;20080;-73
2023/10/13 07:22:45;;;;;;;10.20;2.00;;;;;;;14.83;56.50;100266.19;5088340;28;20054;-73
2023/10/13 07:25:18;;;;;;;8.60;1.75;;;;;;;14.90;56.66;100251.47;5086963;28;20173;-73
2023/10/13 07:27:43;;;;;;;14.02;2.58;;;;;;;15.04;56.39;100255.50;5084350;28;20147;-73
2023/10/13 07:32:38;;;;;;;8.77;2.22;;;;;;;15.10;55.71;100226.63;5063805;28;20123;-73
2023/10/13 07:35:07;;;;;;;9.50;2.08;;;;;;;14.82;55.21;100162.44;5085997;28;20119;-74
2023/10/13 07:37:33;;;;;;;12.50;2.00;;;;;;;14.99;54.63;100197.69;5093555;28;20502;-75
2023/10/13 07:39:58;;;;;;;10.20;1.92;;;;;;;15.24;54.61;100217.13;5075461;28;20035;-74
2023/10/13 07:42:30;;;;;;;9.77;1.95;;;;;;;15.20;54.79;100209.75;5092860;28;20024;-73
2023/10/13 07:44:57;;;;;;;11.02;2.28;;;;;;;15.13;54.39;100199.06;5092690;28;20350;-74
2023/10/13 07:47:24;;;;;;;11.23;2.30;;;;;;;15.20;54.41;100205.13;5091102;28;20111;-73
2023/10/13 07:49:50;;;;;;;9.32;2.00;;;;;;;15.17;54.26;100210.22;5071567;28;20114;-74
2023/10/13 07:54:49;;;;;;;13.00;2.65;;;;;;;15.34;53.81;100194.78;5092833;28;20047;-74
2023/10/13 07:57:15;;;;;;;10.77;2.22;;;;;;;15.31;53.77;100179.03;5088843;28;20114;-74
2023/10/13 07:59:47;;;;;;;14.60;2.13;;;;;;;15.37;53.98;100177.22;5091254;28;20070;-74
2023/10/13 08:02:15;;;;;;;14.10;3.05;;;;;;;15.38;54.43;100176.97;5091706;28;20020;-73
2023/10/13 08:04:40;;;;;;;14.95;2.60;;;;;;;15.41;54.16;100156.69;5075549;28;20032;-73
2023/10/13 08:07:12;;;;;;;15.80;2.67;;;;;;;15.46;54.63;100170.31;5095618;28;20410;-74
2023/10/13 08:09:51;;;;;;;10.60;2.33;;;;;;;15.35;54.63;100152.25;5077753;28;20016;-74
2023/10/13 08:12:21;;;;;;;12.38;2.33;;;;;;;15.52;55.23;100162.00;5060651;28;20032;-74
2023/10/13 08:14:47;;;;;;;13.98;2.58;;;;;;;15.48;54.69;100141.88;5090503;28;20147;-73
2023/10/13 08:17:13;;;;;;;10.32;2.35;;;;;;;15.58;54.97;100146.63;5092196;28;20043;-74
2023/10/13 08:19:44;;;;;;;11.95;1.85;;;;;;;15.58;55.20;100143.09;5080141;28;20056;-74
2023/10/13 08:32:36;;;;;;;12.52;2.90;;;;;;;15.83;56.79;100100.13;5089404;28;20028;-74
2023/10/13 08:37:56;;;;;;;12.23;2.60;;;;;;;15.86;58.65;100088.75;5093312;28;20063;-74
2023/10/13 08:43:13;;;;;;;18.95;2.60;;;;;;;15.92;59.89;100085.00;5088453;28;20085;-74
2023/10/13 08:48:16;;;;;;;13.75;2.72;;;;;;;15.83;61.23;100072.16;5080979;28;20033;-74
2023/10/13 08:53:31;;;;;;;14.35;2.95;;;;;;;15.65;61.74;100036.09;5076134;28;20051;-74
2023/10/13 08:56:08;;;;;;;18.25;3.30;;;;;;;15.88;61.59;100040.47;5089846;28;20035;-73
2023/10/13 09:09:26;;;;;;;15.48;2.42;;;;;;;16.00;64.55;100015.94;5092644;28;20016;-74
2023/10/13 09:12:07;;;;;;;14.90;2.83;;;;;;;16.12;64.49;100018.50;5079278;28;20028;-74
2023/10/13 09:14:33;;;;;;;20.45;3.22;;;;;;;16.16;64.93;100014.22;5080379;28;20048;-74
2023/10/13 09:17:38;;;;;;;16.95;3.20;;;;;;;16.16;64.91;100006.88;5093670;28;20025;-74
2023/10/13 09:19:55;;;;;;;19.33;3.42;;;;;;;16.29;64.62;100000.25;5089758;28;20032;-73
2023/10/13 09:22:27;;;;;;;13.00;2.97;;;;;;;16.28;64.96;99987.72;5073038;28;20395;-73
2023/10/13 09:24:58;;;;;;;16.23;2.88;;;;;;;16.21;65.29;99978.97;5089175;28;20454;-74
2023/10/13 09:27:26;;;;;;;16.02;2.97;;;;;;;16.24;65.32;99967.59;5089929;28;20519;-74
2023/10/13 09:32:48;;;;;;;17.67;2.80;;;;;;;16.22;65.88;99937.16;5072255;28;20035;-74
2023/10/13 09:35:27;;;;;;;16.00;2.75;;;;;;;16.32;65.80;99950.00;5069409;28;20040;-74
2023/10/13 09:37:56;;;;;;;14.23;2.22;;;;;;;16.29;66.33;99940.50;5086256;28;20035;-74
2023/10/13 09:40:26;;;;;;;17.25;2.53;;;;;;;16.27;66.39;99928.28;5067766;28;20028;-74
2023/10/13 09:43:07;;;;;;;11.68;2.15;;;;;;;16.16;66.70;99924.66;5087441;28;20064;-74
2023/10/13 09:45:43;;;;;;;16.23;2.65;;;;;;;15.90;67.94;99904.59;5076773;28;20028;-74
2023/10/13 09:48:21;;;;;;;16.10;3.30;;;;;;;15.83;68.66;99901.25;5067741;28;20044;-74
2023/10/13 09:50:48;;;;;;;13.85;2.50;;;;;;;15.92;67.95;99892.38;5085763;28;20027;-74
2023/10/13 09:53:17;;;;;;;13.55;2.58;;;;;;;15.79;68.55;99870.28;5054368;28;20067;-74
2023/10/13 09:55:55;;;;;;;11.32;2.30;;;;;;;15.81;69.41;99879.00;5094944;28;20016;-74
2023/10/13 09:58:28;;;;;;;11.95;2.42;;;;;;;15.79;69.93;99876.50;5089495;28;20386;-73
2023/10/13 10:01:10;;;;;;;14.52;2.50;;;;;;;15.85;69.88;99878.22;5086741;28;20028;-74
2023/10/13 10:03:51;;;;;;;13.48;2.88;;;;;;;15.79;70.51;99857.53;5085264;28;20067;-74
2023/10/13 10:06:30;;;;;;;16.98;3.15;;;;;;;15.93;70.71;99861.47;5093683;28;20036;-74
2023/10/13 10:09:12;;;;;;;16.35;2.63;;;;;;;15.92;70.34;99838.13;5087144;28;20024;-74
2023/10/13 10:12:08;;;;;;;9.50;2.33;;;;;;;15.97;70.56;99835.47;5089407;28;20046;-74
2023/10/13 10:15:05;;;;;;;11.63;2.33;;;;;;;15.93;71.69;99837.06;5088008;28;20499;-74
2023/10/13 10:17:39;;;;;;;11.82;2.50;;;;;;;15.79;72.97;99819.56;5104237;28;20482;-74
2023/10/13 10:20:14;;;;;;;9.37;2.40;;;;;;;15.65;73.71;99802.84;5092128;28;20028;-74
2023/10/13 10:22:48;;;;;;;10.95;2.55;;;;;;;15.66;73.70;99806.38;5090962;28;20024;-74
2023/10/13 10:25:25;;;;;;;13.27;2.67;;;;;;;15.53;74.59;99799.50;5068997;28;20402;-74
2023/10/13 10:28:20;;;;;;;13.35;2.60;;;;;;;15.47;74.92;99782.38;5067244;28;20047;-74
2023/10/13 10:30:45;;;;;;;12.02;2.53;;;;;;;15.43;74.75;99759.56;5085046;28;20040;-74
2023/10/13 10:33:12;;;;;;;15.02;2.50;;;;;;;15.51;74.12;99756.38;5093052;28;20444;-74
2023/10/13 10:35:59;;;;;;;11.38;2.45;;;;;;;15.48;74.48;99751.47;5075476;28;20051;-74
2023/10/13 10:38:37;;;;;;;12.88;2.38;;;;;;;15.46;74.04;99737.38;5090233;28;20567;-74
2023/10/13 10:41:05;;;;;;;14.10;2.45;;;;;;;15.42;74.31;99709.09;5092135;28;20110;-73
2023/10/13 10:43:53;;;;;;;14.43;3.10;;;;;;;15.46;74.60;99715.69;5074668;28;20042;-74
2023/10/13 10:46:26;;;;;;;15.93;2.50;;;;;;;15.47;74.06;99705.66;5094177;28;20031;-74
2023/10/13 10:48:56;;;;;;;11.77;2.38;;;;;;;15.50;74.08;99697.81;5093486;28;20119;-74
2023/10/13 10:51:22;;;;;;;12.15;2.17;;;;;;;15.45;73.77;99669.84;5085801;28;20025;-74
2023/10/13 10:53:52;;;;;;;18.13;3.03;;;;;;;15.24;74.76;99664.25;5074299;28;20059;-74
2023/10/13 10:56:36;;;;;;;16.83;3.20;;;;;;;15.36;74.56;99674.09;5081725;28;20038;-74
2023/10/13 10:59:04;;;;;;;14.75;2.78;;;;;;;15.29;75.15;99666.16;5090725;28;20043;-74
2023/10/13 11:01:38;;;;;;;9.90;2.25;;;;;;;15.11;76.53;99663.84;5080452;28;20490;-74
2023/10/13 11:04:24;;;;;;;13.20;2.90;;;;;;;15.20;75.71;99636.03;5099507;28;20027;-75
2023/10/13 11:06:58;;;;;;;15.65;2.90;;;;;;;15.33;75.36;99645.63;5075924;28;20272;-74
2023/10/13 11:14:51;;;;;;;12.23;2.33;;;;;;;15.15;76.46;99616.19;5082780;28;20394;-73
2023/10/13 11:17:26;;;;;;;11.48;2.83;;;;;;;15.13;76.58;99593.94;5074036;28;20039;-74
2023/10/13 11:19:51;;;;;;;18.33;3.13;;;;;;;14.93;76.88;99571.06;5089003;28;20498;-74
2023/10/13 11:22:33;;;;;;;17.42;2.78;;;;;;;15.09;77.44;99582.00;5086986;28;20039;-74
2023/10/13 11:24:59;;;;;;;11.38;2.42;;;;;;;14.70;79.73;99555.13;5085551;28;20032;-74
2023/10/13 11:28:06;;;;;;;14.65;2.55;;;;;;;14.68;82.27;99562.69;5088991;28;20084;-75
2023/10/13 11:30:25;;;;;;;14.00;2.83;;;;;;;14.74;82.14;99548.13;5085336;28;20356;-74
2023/10/13 11:33:07;;;;;;;9.80;2.50;;;;;;;14.75;82.48;99531.63;5078063;28;20551;-73
2023/10/13 11:38:28;;;;;;;12.30;2.65;;;;;;;14.46;85.87;99520.22;5084785;28;20550;-74
2023/10/13 11:51:49;;;;;;;14.07;3.08;;;;;;;14.39;88.74;99475.50;5079332;28;20043;-74
2023/10/13 11:54:21;;;;;;;9.35;2.38;;;;;;;14.37;89.53;99459.53;5093771;28;20044;-74
2023/10/13 11:56:48;;;;;;;15.88;2.85;;;;;;;14.27;90.06;99452.13;5085423;28;20026;-74
2023/10/13 11:59:17;;;;;;;13.60;2.65;;;;;;;14.24;90.40;99435.59;5081593;28;20303;-74
2023/10/13 12:04:41;;;;;;;13.30;2.90;;;;;;;14.12;92.12;99418.69;5092001;28;20042;-74
2023/10/13 12:07:19;;;;;;;13.23;2.40;;;;;;;14.12;92.48;99413.28;5072917;28;20035;-73
2023/10/13 12:12:22;;;;;;;15.98;2.83;;;;;;;14.13;93.46;99382.47;5086585;28;20032;-73
2023/10/13 12:14:57;;;;;;;13.57;2.78;;;;;;;14.06;95.22;99375.38;5092431;28;20055;-74
2023/10/13 12:17:28;;;;;;;9.55;2.42;;;;;;;14.10;95.07;99372.97;5072722;28;20044;-73
2023/10/13 12:20:10;;;;;;;11.68;2.10;;;;;;;14.02;95.80;99339.09;5082602;28;20548;-73
2023/10/13 12:22:39;;;;;;;13.48;2.47;;;;;;;14.02;96.36;99332.88;5086579;28;20044;-74
2023/10/13 12:25:25;;;;;;;12.75;2.40;;;;;;;14.02;97.08;99325.56;5054201;28;20043;-72
2023/10/13 12:27:56;;;;;;;10.25;2.70;;;;;;;13.77;98.51;99301.00;5073051;28;20027;-72
2023/10/13 12:30:48;;;;;;;11.15;2.45;;;;;;;14.00;97.24;99308.78;5078541;28;20056;-72
2023/10/13 12:33:16;;;;;;;11.27;2.42;;;;;;;13.94;98.61;99288.19;5072235;28;20058;-73
2023/10/13 12:35:58;;;;;;;7.40;1.92;;;;;;;13.92;99.10;99284.94;5071322;28;20115;-73
2023/10/13 12:38:37;;;;;;;11.60;1.92;;;;;;;14.01;98.83;99266.34;5075052;28;20092;-73
2023/10/13 12:49:38;;;;;;;10.77;2.08;;;;;;;13.89;100.00;99208.91;5063620;28;20185;-72
2023/10/13 12:52:03;;;;;;;8.65;1.90;;;;;;;13.79;100.00;99205.06;5082727;28;20040;-73
2023/10/13 12:54:35;;;;;;;8.80;1.90;;;;;;;13.93;100.00;99177.56;5084109;28;20032;-72
2023/10/13 12:57:02;;;;;;;4.18;1.45;;;;;;;13.84;100.00;99164.56;5073443;28;20630;-73
2023/10/13 12:59:27;;;;;;;9.00;3.47;;;;;;;13.79;100.00;99159.09;5081599;28;20043;-73
2023/10/13 13:01:53;;;;;;;5.55;1.95;;;;;;;13.68;100.00;99148.50;5088737;28;20061;-72
2023/10/13 13:04:22;;;;;;;5.10;1.63;;;;;;;13.76;100.00;99131.78;5082234;28;20016;-72
2023/10/13 13:06:48;;;;;;;7.55;1.90;;;;;;;13.82;100.00;99119.94;5086111;28;20024;-72
2023/10/13 13:09:14;;;;;;;6.43;1.40;;;;;;;13.93;100.00;99099.16;5077581;28;20118;-72
2023/10/13 13:11:42;;;;;;;8.85;2.13;;;;;;;13.99;100.00;99084.59;5076421;28;20124;-72
2023/10/13 13:14:09;;;;;;;4.57;1.80;;;;;;;13.99;100.00;99080.00;5092054;28;20036;-72
2023/10/13 13:16:35;;;;;;;6.97;1.50;;;;;;;14.04;100.00;99055.69;5070297;28;20659;-72
2023/10/13 13:19:09;;;;;;;3.78;1.33;;;;;;;14.09;100.00;99050.28;5085102;28;20039;-72
2023/10/13 13:21:38;;;;;;;4.78;1.10;;;;;;;13.78;100.00;99025.03;5090482;28;20165;-72
2023/10/13 13:24:10;;;;;;;6.57;1.20;;;;;;;14.06;100.00;99012.13;5080904;28;20071;-72
2023/10/13 13:26:40;;;;;;;3.88;1.10;;;;;;;14.05;100.00;98991.59;5084003;28;20028;-71
2023/10/13 13:29:09;;;;;;;7.38;0.93;;;;;;;13.98;100.00;98975.63;5093423;28;20032;-72
2023/10/13 13:31:40;;;;;;;4.45;1.00;;;;;;;13.75;100.00;98951.75;5073869;28;20077;-72
2023/10/13 13:34:09;;;;;;;3.53;0.90;;;;;;;13.96;100.00;98956.13;5076506;28;20036;-72
2023/10/13 13:36:34;;;;;;;2.45;0.75;;;;;;;13.85;100.00;98933.66;5081999;28;20024;-72
2023/10/13 13:39:01;;;;;;;3.65;0.80;;;;;;;14.03;100.00;98912.59;5076700;28;20408;-72
2023/10/13 13:41:27;;;;;;;1.92;0.60;;;;;;;13.86;100.00;98902.03;5079536;28;20033;-72
2023/10/13 13:43:55;;;;;;;2.65;0.90;;;;;;;13.97;100.00;98886.63;5089212;28;20043;-72
2023/10/13 13:46:27;;;;;;;3.95;0.88;;;;;;;14.03;100.00;98870.16;5058706;28;20024;-72
2023/10/13 13:49:00;;;;;;;2.00;0.60;;;;;;;14.05;100.00;98856.38;5099102;28;20043;-72
2023/10/13 13:51:32;;;;;;;2.85;0.77;;;;;;;14.03;100.00;98856.63;5080556;28;20028;-72
2023/10/13 13:53:58;;;;;;;1.92;0.60;;;;;;;14.14;100.00;98840.41;5092964;28;20043;-72
2023/10/13 13:56:28;;;;;;;1.98;0.65;;;;;;;13.92;100.00;98809.03;5099956;28;20073;-73
2023/10/13 13:58:55;;;;;;;2.90;0.80;;;;;;;13.94;100.00;98817.69;5084241;28;20374;-72
2023/10/13 14:01:21;;;;;;;2.60;0.60;;;;;;;14.05;100.00;98807.69;5098395;28;20024;-72
2023/10/13 14:03:50;;;;;;;4.65;0.60;;;;;;;14.12;100.00;98796.59;5101113;28;20071;-72
2023/10/13 14:06:24;;;;;;;1.45;0.40;;;;;;;13.81;100.00;98775.78;5083832;28;20042;-72
2023/10/13 14:08:54;;;;;;;2.00;0.47;;;;;;;14.03;100.00;98756.56;5082371;28;20110;-72
2023/10/13 14:14:28;;;;;;;2.00;0.50;;;;;;;14.18;100.00;98736.00;5091583;28;20052;-73
2023/10/13 14:17:02;;;;;;;1.33;0.45;;;;;;;13.83;100.00;98707.94;5088182;28;20058;-73
2023/10/13 14:19:27;;;;;;;1.17;0.40;;;;;;;13.98;100.00;98693.59;5075414;28;20450;-73
2023/10/13 14:21:57;;;;;;;1.08;0.38;;;;;;;14.05;100.00;98688.72;5073754;28;20040;-73
2023/10/13 14:24:33;;;;;;;0.70;0.32;;;;;;;14.09;100.00;98673.53;5092837;28;20032;-73
2023/10/13 14:27:23;;;;;;;0.95;0.30;;;;;;;14.07;100.00;98656.78;5087890;28;20035;-73
2023/10/13 14:29:47;;;;;;;2.97;0.70;;;;;;;14.23;100.00;98649.44;5092842;28;20036;-73
2023/10/13 14:32:15;;;;;;;1.20;0.35;;;;;;;14.32;100.00;98629.66;5068878;28;20519;-72
2023/10/13 14:34:41;;;;;;;1.25;0.47;;;;;;;14.46;100.00;98639.88;5073994;28;20032;-74
2023/10/13 14:37:07;;;;;;;0.65;0.40;;;;;;;14.48;100.00;98606.03;5085629;28;20042;-73
2023/10/13 14:39:34;;;;;;;0.85;0.30;;;;;;;14.41;100.00;98578.50;5087220;28;20024;-72
2023/10/13 14:42:02;;;;;;;1.00;0.30;;;;;;;14.55;100.00;98584.94;5085251;28;20082;-73
2023/10/13 14:44:28;;;;;;;0.93;0.38;;;;;;;14.54;100.00;98577.91;5086925;28;20047;-73
2023/10/13 14:46:54;;;;;;;0.50;0.20;;;;;;;14.47;100.00;98552.19;5083585;28;20028;-72
2023/10/13 14:49:20;;;;;;;1.23;0.50;;;;;;;14.55;100.00;98567.88;5087925;28;20169;-73
2023/10/13 14:51:46;;;;;;;0.98;0.38;;;;;;;14.71;100.00;98571.31;5084931;28;20547;-73
2023/10/13 14:54:11;;;;;;;1.02;0.40;;;;;;;14.71;100.00;98534.22;5092948;28;20059;-72
2023/10/13 14:56:42;;;;;;;0.50;0.30;;;;;;;14.83;100.00;98541.97;5073805;28;20440;-72
2023/10/13 14:59:07;;;;;;;0.95;0.40;;;;;;;14.80;100.00;98519.00;5071008;28;20031;-72
2023/10/13 15:01:34;;;;;;;0.52;0.30;;;;;;;14.92;100.00;98526.75;5086108;28;20390;-72
2023/10/13 15:04:00;;;;;;;2.33;0.45;;;;;;;15.00;100.00;98528.84;5089569;28;20157;-72
2023/10/13 15:06:30;;;;;;;1.35;0.60;;;;;;;15.12;100.00;98516.81;5086748;28;20388;-72
2023/10/13 15:08:57;;;;;;;10.52;1.30;;;;;;;15.36;100.00;98506.81;5086809;28;20025;-72